Terminal Aerodrome Forecast
Issued by NWS

Home | Current Version | Previous Version | Text Only | Print | Product List | Glossary On
Versions: 1 2 3 4 5 6 7 8 9 10 11 12 13 14 15 16 17 18
000
FTUS44 KOUN 230520
TAFLAW
TAF
KLAW 230520Z 2306/2406 13006KT P6SM SCT250
     FM232000 02013G19KT P6SM BKN040 PROB30 2321/2402 5SM -TSRA
      OVC030CB
     FM240200 04013KT P6SM VCTS BKN040CB
      TEMPO 2402/2406 3SM -TSRA SCT015 OVC025CB=

USA.gov is the U.S. government's official web portal to all federal, state and local government web resources and services.